Tropical Cyclones
[Index]
Main Index Home Page Stock Weather Photos Extreme Storms Discussion Storm News and Storm Chasing Reports Tropical Cyclones / Hurricanes / Typhoons Weather Data and Links Wild Fires / Bushfires Weather Observation Techniques Weather Picture Catalogue Tornado Pictures and Reports Stock Video Footage and DVDs for sale
Season 1989-1990 Tropical Cyclone ALEX Track Map
Season 1989-1990 Summaries: [BoM-AU] [JTWC-AU] [JTWC-SIO] [JTWC-SPAC] [JTWC-SH]
<<- Previous TC | BoM 1989-1990 Season | Next TC ->>

click for intensity scale information  Lat/long Grid: Show Hide

 Date Labels: Show Hide

Bureau of Meteorology Tropical Cyclone Data

Name: ALEX
Number: 730 / 198990_11

16 Mar 1990 00:00 UTC to 26 Mar 1990 00:00 UTC

    date/time    lat    long    hPa   cat  kts
1990-03-16 00   12.3   112.4    998         35          
1990-03-16 06   12.4   111.8    991    1    45          
1990-03-16 12   12.4   111.2    988    1    49          
1990-03-16 18   12.6   110.6    986    1    52          
1990-03-17 00   12.8   110.0    984    2    56          
1990-03-17 06   13.0   109.6    980    2    60          
1990-03-17 12   13.4   109.0    972    2    70          
1990-03-17 18   13.5   108.6    962    3    82          
1990-03-18 00   13.6   108.2    952    4    93          
1990-03-18 06   14.2   107.5    947    4    97          
1990-03-18 12   14.9   106.4    941    4    103          
1990-03-18 18   15.0   105.8    938    4    105          
1990-03-19 00   15.0   105.0    934    4    109          
1990-03-19 06   15.6   103.9    930    4    113          
1990-03-19 12   16.2   102.7    927    5    115          
1990-03-19 18   16.5   101.5    927    5    115          
1990-03-20 00   16.7   100.6    927    5    115          
1990-03-20 06   17.4    99.2    941    4    103          
1990-03-20 12   18.4    97.6    945    4    99          
1990-03-20 18   19.0    96.6    950    4    95          
1990-03-21 00   19.6    95.6    954    4    89          
1990-03-21 06   20.4    94.3    960    3    84          
1990-03-21 12   21.2    93.0    966    3    78          
1990-03-21 18   21.6    92.6    972    2    70          
1990-03-22 00   22.0    92.1    976    2    66          
1990-03-22 06   22.6    91.5    980    2    60          
1990-03-22 12   24.0    91.0    984    2    56          
1990-03-22 18   25.0    91.2    987    1    51          
1990-03-23 00   25.8    91.6    991    1    45          
1990-03-23 06   26.5    92.3    994    1    41          
1990-03-23 12   27.4    92.9    997         35          
1990-03-23 18   27.1    94.3    999         33          
1990-03-24 00   26.6    96.1   1000         31          
1990-03-24 06   26.3    97.6   1001         29          
1990-03-24 12   25.5    98.5   1003         27          
1990-03-24 18   24.9    99.2   1004         25          
1990-03-25 00   22.0    99.5   1004         25          
1990-03-25 06   20.2    99.0   1005         23          
1990-03-25 12   19.4    98.0   1006                     
1990-03-25 18   18.8    96.6   1007                     
1990-03-26 00   18.2    94.9   1008                     
Winds are 10-min average.

Tropical cyclone tracks developed by Michael Bath using data from the Bureau of Meteorology and Google Maps.


[Australian Severe Weather index] [Copyright Notice] [Email Contacts] [Search This Site] [Privacy Policy]
Document: tropical_cyclone_alex.htm Updated: 30 May 2013